createdAt,value
2022-11-13T00:04:12.845Z,87.40
2022-11-13T00:12:39.280Z,87.00
2022-11-13T00:21:08.600Z,87.00
2022-11-13T00:29:35.500Z,87.20
2022-11-13T00:37:59.307Z,87.10
2022-11-13T00:46:25.652Z,87.20
2022-11-13T00:54:49.593Z,87.40
2022-11-13T01:03:15.852Z,87.20
2022-11-13T01:12:07.058Z,87.30
2022-11-13T01:21:36.814Z,89.30
2022-11-13T01:30:07.510Z,88.80
2022-11-13T01:38:36.867Z,88.70
2022-11-13T01:47:01.398Z,88.40
2022-11-13T01:55:28.297Z,88.30
2022-11-13T02:03:52.110Z,88.40
2022-11-13T02:12:21.865Z,88.00
2022-11-13T02:20:53.982Z,88.80
2022-11-13T02:29:20.922Z,88.80
2022-11-13T02:37:45.161Z,89.60
2022-11-13T02:46:11.980Z,89.90
2022-11-13T02:54:35.921Z,90.20
2022-11-13T03:03:02.661Z,90.60
2022-11-13T03:11:26.547Z,90.50
2022-11-13T03:19:53.548Z,91.10
2022-11-13T03:28:17.801Z,91.30
2022-11-13T03:36:44.223Z,91.00
2022-11-13T03:45:09.200Z,90.40
2022-11-13T03:53:35.965Z,90.30
2022-11-13T04:02:00.192Z,91.00
2022-11-13T04:10:26.214Z,92.10
2022-11-13T04:18:50.015Z,92.20
2022-11-13T04:27:16.757Z,92.10
2022-11-13T04:35:41.884Z,91.70
2022-11-13T04:44:08.643Z,93.20
2022-11-13T04:52:32.573Z,92.80
2022-11-13T05:00:59.165Z,92.40
2022-11-13T05:09:23.280Z,92.30
2022-11-13T05:17:52.122Z,91.70
2022-11-13T05:26:17.112Z,92.10
2022-11-13T05:34:44.081Z,92.00
2022-11-13T05:43:08.008Z,91.80
2022-11-13T05:51:37.930Z,92.10
2022-11-13T06:00:01.663Z,91.40
2022-11-13T06:08:28.517Z,91.60
2022-11-13T06:16:52.719Z,92.80
2022-11-13T06:25:19.410Z,92.30
2022-11-13T06:33:44.686Z,91.60
2022-11-13T06:42:11.408Z,92.80
2022-11-13T06:50:35.398Z,93.00
2022-11-13T06:59:06.292Z,91.80
2022-11-13T07:07:32.217Z,92.40
2022-11-13T07:16:15.784Z,91.60
2022-11-13T07:24:40.825Z,92.40
2022-11-13T07:33:08.187Z,92.10
2022-11-13T07:41:32.287Z,92.30
2022-11-13T07:50:05.520Z,91.80
2022-11-13T07:58:32.801Z,92.20
2022-11-13T08:06:59.589Z,92.50
2022-11-13T08:15:23.773Z,91.40
2022-11-13T08:23:50.514Z,90.50
2022-11-13T08:32:17.893Z,88.80
2022-11-13T08:40:44.732Z,89.20
2022-11-13T08:49:09.146Z,90.40
2022-11-13T08:57:36.104Z,90.50
2022-11-13T09:06:00.085Z,89.90
2022-11-13T09:14:28.290Z,88.40
2022-11-13T09:22:52.385Z,87.80
2022-11-13T09:31:19.431Z,86.80
2022-11-13T09:39:43.465Z,87.30
2022-11-13T09:48:21.919Z,86.30
2022-11-13T09:56:49.961Z,86.40
2022-11-13T10:05:25.014Z,88.60
2022-11-13T10:13:52.395Z,86.10
2022-11-13T10:22:32.862Z,81.10
2022-11-13T10:30:57.881Z,81.50
2022-11-13T10:39:24.714Z,83.80
2022-11-13T10:48:04.357Z,82.80
2022-11-13T10:56:33.809Z,82.90
2022-11-13T11:05:09.541Z,82.60
2022-11-13T11:13:35.894Z,85.00
2022-11-13T11:22:09.947Z,85.00
2022-11-13T11:30:42.984Z,87.30
2022-11-13T11:39:18.469Z,90.00
2022-11-13T11:47:45.574Z,90.40
2022-11-13T11:56:26.569Z,89.90
2022-11-13T12:05:03.900Z,90.70
2022-11-13T12:13:32.475Z,91.50
2022-11-13T12:22:07.393Z,91.40
2022-11-13T12:30:45.178Z,90.30
2022-11-13T12:39:33.699Z,90.00
2022-11-13T12:47:57.861Z,89.60
2022-11-13T12:56:34.165Z,89.00
2022-11-13T13:05:11.161Z,86.20
2022-11-13T13:13:43.890Z,85.40
2022-11-13T13:22:14.114Z,85.30
2022-11-13T13:30:57.427Z,84.30
2022-11-13T13:39:38.924Z,83.80
2022-11-13T13:48:10.826Z,83.10
2022-11-13T13:56:35.353Z,82.40
2022-11-13T14:05:01.987Z,81.60
2022-11-13T14:13:27.900Z,81.50
2022-11-13T14:21:56.695Z,82.20
2022-11-13T14:30:27.422Z,82.70
2022-11-13T14:38:55.142Z,82.40
2022-11-13T14:47:28.701Z,83.00
2022-11-13T14:55:57.711Z,83.20
2022-11-13T15:04:21.731Z,83.80
2022-11-13T15:12:48.991Z,84.00
2022-11-13T15:21:12.855Z,84.40
2022-11-13T15:29:39.639Z,84.80
2022-11-13T15:38:03.900Z,85.20
2022-11-13T15:46:30.871Z,85.60
2022-11-13T15:54:55.851Z,86.20
2022-11-13T16:03:23.885Z,86.10
2022-11-13T16:11:47.857Z,86.70
2022-11-13T16:20:16.645Z,87.00
2022-11-13T16:29:07.134Z,87.00
2022-11-13T16:37:27.865Z,87.40
2022-11-13T16:45:52.372Z,86.90
2022-11-13T16:54:19.156Z,87.00
2022-11-13T17:02:43.180Z,86.90
2022-11-13T17:11:09.617Z,86.90
2022-11-13T17:19:33.865Z,87.30
2022-11-13T17:28:00.421Z,87.40
2022-11-13T17:36:24.825Z,87.60
2022-11-13T17:44:51.553Z,87.40
2022-11-13T17:53:16.172Z,88.10
2022-11-13T18:01:42.891Z,88.00
2022-11-13T18:10:07.233Z,87.80
2022-11-13T18:18:33.898Z,87.60
2022-11-13T18:26:57.877Z,87.60
2022-11-13T18:35:24.621Z,88.20
2022-11-13T18:43:50.248Z,88.10
2022-11-13T18:52:17.172Z,87.60
2022-11-13T19:00:41.440Z,87.20
2022-11-13T19:09:08.270Z,87.20
2022-11-13T19:17:32.028Z,87.30
2022-11-13T19:25:58.742Z,86.80
2022-11-13T19:34:22.698Z,87.40
2022-11-13T19:42:49.497Z,87.40
2022-11-13T19:51:15.800Z,87.40
2022-11-13T19:59:42.703Z,87.10
2022-11-13T20:08:06.870Z,87.20
2022-11-13T20:16:32.845Z,87.10
2022-11-13T20:24:57.189Z,87.00
2022-11-13T20:33:24.001Z,87.20
2022-11-13T20:41:47.924Z,86.80
2022-11-13T20:50:14.894Z,87.00
2022-11-13T20:58:39.305Z,87.00
2022-11-13T21:07:06.148Z,86.90
2022-11-13T21:15:30.385Z,86.20
2022-11-13T21:23:59.486Z,86.20
2022-11-13T21:32:23.673Z,85.90
2022-11-13T21:41:10.620Z,86.80
2022-11-13T21:49:34.592Z,86.90
2022-11-13T21:58:01.447Z,88.00
2022-11-13T22:06:27.178Z,87.80
2022-11-13T22:14:53.669Z,87.80
2022-11-13T22:23:17.550Z,87.60
2022-11-13T22:31:45.103Z,87.80
2022-11-13T22:40:10.217Z,88.40
2022-11-13T22:48:37.878Z,88.70
2022-11-13T22:57:04.291Z,89.10
2022-11-13T23:05:30.653Z,88.90
2022-11-13T23:13:55.852Z,88.40
2022-11-13T23:22:22.282Z,89.00
2022-11-13T23:30:46.357Z,88.80
2022-11-13T23:39:15.002Z,89.40
2022-11-13T23:47:39.162Z,89.40
2022-11-13T23:56:05.835Z,90.20
